createdAt,value
2024-02-14T00:00:16.426Z,4.03
2024-02-14T00:03:14.944Z,3.65
2024-02-14T00:06:15.295Z,3.15
2024-02-14T00:09:13.681Z,3.25
2024-02-14T00:12:13.482Z,3.55
2024-02-14T00:15:12.103Z,3.67
2024-02-14T00:18:11.159Z,3.70
2024-02-14T00:21:09.546Z,3.13
2024-02-14T00:24:08.426Z,3.28
2024-02-14T00:27:06.966Z,3.42
2024-02-14T00:30:06.393Z,3.10
2024-02-14T00:33:05.198Z,3.22
2024-02-14T00:36:03.985Z,3.97
2024-02-14T00:39:02.634Z,4.03
2024-02-14T00:42:05.643Z,3.90
2024-02-14T00:45:05.050Z,3.95
2024-02-14T00:48:06.092Z,3.30
2024-02-14T00:51:04.620Z,3.20
2024-02-14T00:54:03.440Z,3.45
2024-02-14T00:57:01.860Z,3.08
2024-02-14T01:00:01.843Z,3.40
2024-02-14T01:03:00.769Z,3.28
2024-02-14T01:05:59.360Z,3.40
2024-02-14T01:08:57.785Z,3.30
2024-02-14T01:11:56.295Z,4.22
2024-02-14T01:14:55.463Z,4.53
2024-02-14T01:17:53.995Z,5.25
2024-02-14T01:20:52.673Z,5.38
2024-02-14T01:23:51.260Z,4.50
2024-02-14T01:26:49.548Z,4.60
2024-02-14T01:29:48.054Z,4.00
2024-02-14T01:32:46.633Z,3.63
2024-02-14T01:35:48.006Z,3.50
2024-02-14T01:38:47.076Z,4.57
2024-02-14T01:41:50.366Z,3.95
2024-02-14T01:47:47.386Z,4.10
2024-02-14T01:50:45.957Z,3.78
2024-02-14T01:53:44.906Z,4.28
2024-02-14T01:56:44.682Z,4.13
2024-02-14T01:59:43.253Z,5.15
2024-02-14T02:02:41.791Z,6.57
2024-02-14T02:05:40.446Z,6.80
2024-02-14T02:08:38.929Z,7.10
2024-02-14T02:11:53.662Z,7.57
2024-02-14T02:14:52.046Z,9.95
2024-02-14T02:18:03.327Z,11.02
2024-02-14T02:21:02.596Z,8.73
2024-02-14T02:24:01.114Z,9.35
2024-02-14T02:26:59.529Z,9.38
2024-02-14T02:29:58.031Z,8.55
2024-02-14T02:32:56.527Z,6.95
2024-02-14T02:35:55.096Z,5.78
2024-02-14T02:38:53.738Z,5.43
2024-02-14T02:41:52.462Z,5.20
2024-02-14T02:44:53.763Z,5.88
2024-02-14T02:47:53.701Z,7.50
2024-02-14T02:50:52.911Z,5.78
2024-02-14T02:53:51.554Z,7.72
2024-02-14T02:56:49.854Z,9.45
2024-02-14T02:59:50.333Z,8.77
2024-02-14T03:02:48.965Z,17.42
2024-02-14T03:05:47.694Z,25.75
2024-02-14T03:08:46.178Z,28.20
2024-02-14T03:11:44.714Z,28.73
2024-02-14T03:14:45.048Z,27.92
2024-02-14T03:17:44.512Z,28.80
2024-02-14T03:20:42.946Z,28.45
2024-02-14T03:23:41.960Z,33.75
2024-02-14T03:26:40.363Z,30.90
2024-02-14T03:29:40.900Z,27.45
2024-02-14T03:32:39.267Z,23.33
2024-02-14T03:35:37.895Z,23.60
2024-02-14T03:38:37.437Z,20.95
2024-02-14T03:41:36.082Z,19.38
2024-02-14T03:44:34.695Z,19.15
2024-02-14T03:47:34.744Z,17.77
2024-02-14T03:50:34.634Z,17.63
2024-02-14T03:53:35.267Z,21.88
2024-02-14T03:56:34.586Z,20.30
2024-02-14T03:59:34.652Z,18.52
2024-02-14T04:02:33.715Z,17.35
2024-02-14T04:05:32.527Z,12.07
2024-02-14T04:08:31.574Z,11.85
2024-02-14T04:11:30.181Z,14.20
2024-02-14T04:14:28.696Z,13.07
2024-02-14T04:17:27.374Z,12.90
2024-02-14T04:20:25.891Z,11.65
2024-02-14T04:23:25.048Z,11.05
2024-02-14T04:26:24.856Z,9.30
2024-02-14T04:29:23.324Z,7.65
2024-02-14T04:32:21.772Z,8.27
2024-02-14T04:35:22.528Z,10.98
2024-02-14T04:38:21.653Z,11.18
2024-02-14T04:41:20.225Z,12.90
2024-02-14T04:44:18.531Z,13.30
2024-02-14T04:47:17.025Z,12.20
2024-02-14T04:50:15.908Z,13.90
2024-02-14T04:53:14.378Z,11.25
2024-02-14T04:56:12.841Z,10.13
2024-02-14T04:59:11.450Z,10.30
2024-02-14T05:02:09.773Z,9.02
2024-02-14T05:05:10.309Z,10.20
2024-02-14T05:08:09.106Z,11.65
2024-02-14T05:11:07.743Z,13.25
2024-02-14T05:14:06.016Z,12.77
2024-02-14T05:17:04.620Z,9.60
2024-02-14T05:20:02.985Z,12.35
2024-02-14T05:23:01.912Z,12.40
2024-02-14T05:26:00.195Z,12.07
2024-02-14T05:28:58.680Z,11.20
2024-02-14T05:31:57.365Z,12.63
2024-02-14T05:34:56.484Z,12.30
2024-02-14T05:37:56.277Z,28.15
2024-02-14T05:40:54.820Z,27.05
2024-02-14T05:43:53.221Z,28.27
2024-02-14T05:46:51.651Z,24.75
2024-02-14T05:49:50.011Z,22.95
2024-02-14T05:52:48.547Z,21.27
2024-02-14T05:55:46.851Z,22.67
2024-02-14T05:58:45.337Z,23.88
2024-02-14T06:01:43.646Z,31.83
2024-02-14T06:04:44.918Z,43.03
2024-02-14T06:07:43.955Z,43.40
2024-02-14T06:10:42.437Z,54.03
2024-02-14T06:13:41.983Z,53.40
2024-02-14T06:16:41.004Z,54.85
2024-02-14T06:19:41.283Z,55.53
2024-02-14T06:22:45.148Z,53.30
2024-02-14T06:25:49.055Z,48.92
2024-02-14T06:28:48.129Z,47.45
2024-02-14T06:31:46.700Z,46.25
2024-02-14T06:34:45.409Z,44.88
2024-02-14T06:37:48.995Z,46.88
2024-02-14T06:40:54.403Z,43.28
2024-02-14T06:43:52.766Z,41.20
2024-02-14T06:46:51.365Z,37.58
2024-02-14T06:49:51.278Z,33.78
2024-02-14T06:52:49.749Z,31.15
2024-02-14T06:55:48.144Z,28.55
2024-02-14T06:58:46.952Z,31.67
2024-02-14T07:01:45.291Z,32.65
2024-02-14T07:04:43.766Z,41.83
2024-02-14T07:07:42.454Z,43.40
2024-02-14T07:10:41.418Z,53.35
2024-02-14T07:13:39.873Z,55.80
2024-02-14T07:16:38.332Z,59.10
2024-02-14T07:19:37.235Z,65.82
2024-02-14T07:22:36.106Z,76.72
2024-02-14T07:25:34.567Z,84.72
2024-02-14T07:28:34.256Z,98.40
2024-02-14T07:31:33.464Z,108.68
2024-02-14T07:34:32.096Z,110.28
2024-02-14T07:37:30.572Z,113.38
2024-02-14T07:40:30.009Z,122.35
2024-02-14T07:43:28.530Z,121.80
2024-02-14T07:46:29.125Z,118.90
2024-02-14T07:49:27.642Z,119.88
2024-02-14T07:52:27.067Z,123.55
2024-02-14T07:55:26.056Z,123.20
2024-02-14T07:58:24.700Z,123.47
2024-02-14T08:01:23.117Z,120.30
2024-02-14T08:04:21.645Z,124.05
2024-02-14T08:07:20.109Z,128.65
2024-02-14T08:10:18.895Z,123.78
2024-02-14T08:13:19.073Z,132.10
2024-02-14T08:16:17.661Z,132.50
2024-02-14T08:19:17.774Z,124.68
2024-02-14T08:22:16.942Z,114.47
2024-02-14T08:25:15.360Z,126.93
2024-02-14T08:28:13.929Z,121.63
2024-02-14T08:31:13.668Z,125.80
2024-02-14T08:34:12.535Z,125.50
2024-02-14T08:37:10.985Z,121.03
2024-02-14T08:40:10.228Z,116.57
2024-02-14T08:43:08.888Z,127.35
2024-02-14T08:46:13.714Z,123.95
2024-02-14T08:49:12.748Z,118.65
2024-02-14T08:52:11.577Z,123.93
2024-02-14T08:55:16.236Z,121.38
2024-02-14T08:58:14.757Z,125.47
2024-02-14T09:01:15.995Z,126.15
2024-02-14T09:04:14.869Z,126.28
2024-02-14T09:07:14.537Z,130.13
2024-02-14T09:10:14.729Z,129.55
2024-02-14T09:13:13.123Z,128.85
2024-02-14T09:16:12.951Z,122.45
2024-02-14T09:19:14.147Z,123.20
2024-02-14T09:22:12.734Z,120.32
2024-02-14T09:25:11.754Z,121.57
2024-02-14T09:28:11.173Z,121.95
2024-02-14T09:31:11.784Z,119.22
2024-02-14T09:34:10.892Z,112.93
2024-02-14T09:37:09.427Z,107.82
2024-02-14T09:40:09.516Z,108.63
2024-02-14T09:43:12.120Z,107.03
2024-02-14T09:46:11.010Z,110.55
2024-02-14T09:49:10.765Z,99.95
2024-02-14T09:52:13.438Z,98.35
2024-02-14T09:55:14.077Z,99.82
2024-02-14T09:58:12.986Z,108.10
2024-02-14T10:01:11.364Z,100.47
2024-02-14T10:04:10.016Z,99.57
2024-02-14T10:07:08.362Z,94.35
2024-02-14T10:10:10.182Z,107.13
2024-02-14T10:13:09.656Z,95.20
2024-02-14T10:16:10.428Z,100.93
2024-02-14T10:19:17.889Z,115.35
2024-02-14T10:22:17.708Z,106.20
2024-02-14T10:25:16.722Z,98.40
2024-02-14T10:28:15.188Z,101.15
2024-02-14T10:31:17.699Z,100.78
2024-02-14T10:34:17.452Z,99.30
2024-02-14T10:37:18.306Z,95.15
2024-02-14T10:40:16.733Z,97.13
2024-02-14T10:43:15.769Z,95.40
2024-02-14T10:46:27.296Z,103.95
2024-02-14T10:49:31.089Z,104.35
2024-02-14T10:52:35.380Z,99.82
2024-02-14T10:55:35.071Z,98.50
2024-02-14T10:58:35.352Z,94.40
2024-02-14T11:01:34.732Z,96.93
2024-02-14T11:04:34.151Z,101.70
2024-02-14T11:07:33.599Z,90.45
2024-02-14T11:10:32.195Z,81.55
2024-02-14T11:13:34.891Z,68.13
2024-02-14T11:16:35.469Z,61.20
2024-02-14T11:19:38.330Z,58.55
2024-02-14T11:22:38.024Z,55.95
2024-02-14T11:25:41.067Z,53.25
2024-02-14T11:28:44.416Z,57.10
2024-02-14T11:34:44.198Z,56.00
2024-02-14T11:37:44.043Z,61.40
2024-02-14T11:40:42.837Z,56.30
2024-02-14T11:43:41.969Z,49.15
2024-02-14T11:46:40.674Z,47.65
2024-02-14T11:49:41.391Z,46.47
2024-02-14T11:52:39.890Z,45.97
2024-02-14T11:55:40.416Z,55.63
2024-02-14T11:58:38.915Z,55.88
2024-02-14T12:01:38.768Z,55.22
2024-02-14T12:04:38.481Z,56.50
2024-02-14T12:07:36.870Z,57.78
2024-02-14T12:10:37.144Z,59.08
2024-02-14T12:13:37.772Z,52.08
2024-02-14T12:16:39.439Z,45.90
2024-02-14T12:19:40.052Z,40.45
2024-02-14T12:22:39.223Z,38.78
2024-02-14T12:25:37.578Z,36.35
2024-02-14T12:28:36.859Z,36.45
2024-02-14T12:31:35.773Z,31.45
2024-02-14T12:34:35.951Z,28.55
2024-02-14T12:37:34.446Z,24.35
2024-02-14T12:40:34.776Z,26.85
2024-02-14T12:43:33.109Z,25.63
2024-02-14T12:46:31.676Z,25.55
2024-02-14T12:49:30.135Z,23.65
2024-02-14T12:52:29.480Z,20.77
2024-02-14T12:55:30.419Z,18.63
2024-02-14T12:58:29.009Z,24.85
2024-02-14T13:01:27.356Z,18.40
2024-02-14T13:04:26.409Z,15.80
2024-02-14T13:07:24.799Z,15.27
2024-02-14T13:10:24.115Z,18.00
2024-02-14T13:13:22.721Z,15.75
2024-02-14T13:16:22.528Z,14.07
2024-02-14T13:19:21.164Z,12.48
2024-02-14T13:22:20.280Z,14.88
2024-02-14T13:25:18.708Z,13.02
2024-02-14T13:28:17.212Z,12.07
2024-02-14T13:31:16.309Z,12.55
2024-02-14T13:34:16.549Z,12.85
2024-02-14T13:37:18.375Z,12.02
2024-02-14T13:40:17.214Z,12.55
2024-02-14T13:43:21.281Z,12.40
2024-02-14T13:46:20.736Z,12.43
2024-02-14T13:49:23.482Z,13.82
2024-02-14T13:52:22.422Z,13.75
2024-02-14T13:55:21.003Z,13.25
2024-02-14T13:58:34.097Z,11.63
2024-02-14T14:01:39.779Z,12.35
2024-02-14T14:04:43.756Z,12.73
2024-02-14T14:16:26.646Z,14.00
2024-02-14T14:19:30.929Z,12.57
2024-02-14T14:22:31.915Z,15.05
2024-02-14T14:25:33.000Z,11.32
2024-02-14T14:28:35.327Z,10.65
2024-02-14T14:31:33.933Z,8.48
2024-02-14T14:34:34.281Z,8.90
2024-02-14T14:37:33.041Z,9.20
2024-02-14T14:40:31.955Z,8.98
2024-02-14T14:43:30.238Z,7.88
2024-02-14T14:46:28.704Z,7.88
2024-02-14T14:49:27.074Z,12.10
2024-02-14T14:52:25.546Z,8.57
2024-02-14T14:55:23.770Z,7.65
2024-02-14T14:58:25.208Z,8.23
2024-02-14T15:01:24.876Z,8.07
2024-02-14T15:04:23.418Z,12.38
2024-02-14T15:07:22.874Z,11.38
2024-02-14T15:10:21.631Z,8.88
2024-02-14T15:13:20.829Z,7.63
2024-02-14T15:16:19.631Z,7.57
2024-02-14T15:19:18.084Z,6.72
2024-02-14T15:22:16.759Z,14.65
2024-02-14T15:25:15.041Z,8.70
2024-02-14T15:28:16.257Z,7.70
2024-02-14T15:31:30.062Z,8.07
2024-02-14T15:34:28.636Z,9.13
2024-02-14T15:37:27.973Z,7.43
2024-02-14T15:40:27.646Z,7.72
2024-02-14T15:43:27.040Z,8.98
2024-02-14T15:46:25.897Z,9.18
2024-02-14T15:49:24.402Z,9.35
2024-02-14T15:52:22.818Z,9.88
2024-02-14T15:55:21.029Z,9.60
2024-02-14T15:58:19.391Z,8.45
2024-02-14T16:01:19.771Z,6.63
2024-02-14T16:04:18.417Z,8.68
2024-02-14T16:07:16.656Z,9.85
2024-02-14T16:10:16.631Z,8.02
2024-02-14T16:13:19.689Z,7.05
2024-02-14T16:17:12.313Z,6.38
2024-02-14T16:20:00.900Z,7.68
2024-02-14T16:22:59.529Z,6.63
2024-02-14T16:25:57.764Z,6.00
2024-02-14T16:28:56.071Z,6.97
2024-02-14T16:31:54.285Z,6.43
2024-02-14T16:34:52.803Z,6.45
2024-02-14T16:37:51.227Z,6.53
2024-02-14T16:40:50.932Z,6.93
2024-02-14T16:43:49.200Z,7.43
2024-02-14T16:46:48.930Z,6.28
2024-02-14T16:49:47.223Z,6.90
2024-02-14T16:52:46.697Z,5.78
2024-02-14T16:55:44.932Z,5.97
2024-02-14T16:58:43.310Z,6.03
2024-02-14T17:01:41.595Z,5.47
2024-02-14T17:04:41.406Z,5.68
2024-02-14T17:07:39.743Z,5.63
2024-02-14T17:10:38.235Z,5.22
2024-02-14T17:13:36.733Z,5.30
2024-02-14T17:16:35.141Z,4.70
2024-02-14T17:19:33.437Z,4.43
2024-02-14T17:22:32.150Z,4.53
2024-02-14T17:25:30.601Z,4.30
2024-02-14T17:28:28.993Z,4.45
2024-02-14T17:31:27.468Z,4.75
2024-02-14T17:34:28.086Z,4.05
2024-02-14T17:37:26.700Z,4.22
2024-02-14T17:40:25.310Z,3.90
2024-02-14T17:43:23.493Z,4.10
2024-02-14T17:46:24.393Z,3.63
2024-02-14T17:49:23.587Z,4.45
2024-02-14T17:52:23.805Z,6.00
2024-02-14T17:55:22.092Z,6.60
2024-02-14T17:58:22.947Z,5.80
2024-02-14T18:01:21.459Z,6.20
2024-02-14T18:04:21.963Z,5.60
2024-02-14T18:07:22.473Z,4.40
2024-02-14T18:10:20.950Z,4.75
2024-02-14T18:13:19.959Z,4.28
2024-02-14T18:16:18.330Z,4.30
2024-02-14T18:19:17.014Z,3.60
2024-02-14T18:22:15.500Z,4.85
2024-02-14T18:25:14.156Z,5.13
2024-02-14T18:28:12.743Z,4.47
2024-02-14T18:31:14.011Z,4.15
2024-02-14T18:34:12.731Z,4.15
2024-02-14T18:37:12.658Z,3.70
2024-02-14T18:40:11.486Z,4.90
2024-02-14T18:43:09.704Z,4.40
2024-02-14T18:46:10.685Z,3.72
2024-02-14T18:49:09.453Z,4.00
2024-02-14T18:52:07.995Z,3.90
2024-02-14T18:55:06.807Z,4.00
2024-02-14T18:58:05.380Z,3.53
2024-02-14T19:01:03.691Z,4.10
2024-02-14T19:04:05.651Z,3.72
2024-02-14T19:07:04.341Z,3.72
2024-02-14T19:10:02.709Z,3.63
2024-02-14T19:13:02.384Z,3.42
2024-02-14T19:16:08.829Z,4.05
2024-02-14T19:19:13.955Z,3.90
2024-02-14T19:22:12.823Z,3.78
2024-02-14T19:25:11.099Z,3.42
2024-02-14T19:28:11.388Z,3.45
2024-02-14T19:31:12.768Z,3.05
2024-02-14T19:34:11.388Z,2.97
2024-02-14T19:37:10.271Z,3.33
2024-02-14T19:40:11.639Z,2.97
2024-02-14T19:43:11.790Z,3.55
2024-02-14T19:49:15.398Z,3.03
2024-02-14T19:52:14.011Z,3.20
2024-02-14T19:55:13.482Z,2.63
2024-02-14T19:58:11.993Z,3.40
2024-02-14T20:01:11.102Z,2.95
2024-02-14T20:04:11.436Z,3.28
2024-02-14T20:07:09.624Z,2.90
2024-02-14T20:10:08.582Z,2.95
2024-02-14T20:13:06.868Z,2.50
2024-02-14T20:16:05.956Z,2.35
2024-02-14T20:19:04.379Z,2.35
2024-02-14T20:22:02.857Z,2.60
2024-02-14T20:25:01.991Z,2.22
2024-02-14T20:28:00.358Z,2.60
2024-02-14T20:30:58.959Z,2.42
2024-02-14T20:33:57.448Z,2.13
2024-02-14T20:36:55.840Z,1.92
2024-02-14T20:39:54.320Z,2.22
2024-02-14T20:42:52.520Z,2.20
2024-02-14T20:45:50.925Z,2.63
2024-02-14T20:48:49.502Z,2.10
2024-02-14T20:51:48.092Z,2.30
2024-02-14T20:54:46.337Z,1.95
2024-02-14T20:57:44.892Z,2.17
2024-02-14T21:00:44.972Z,1.92
2024-02-14T21:03:43.269Z,2.00
2024-02-14T21:06:42.114Z,2.40
2024-02-14T21:09:40.725Z,1.92
2024-02-14T21:12:39.073Z,2.38
2024-02-14T21:15:37.631Z,2.47
2024-02-14T21:18:35.864Z,2.13
2024-02-14T21:21:37.526Z,2.10
2024-02-14T21:24:36.201Z,2.20
2024-02-14T21:27:36.521Z,2.08
2024-02-14T21:30:34.705Z,1.65
2024-02-14T21:33:33.479Z,1.77
2024-02-14T21:36:32.111Z,1.92
2024-02-14T21:39:30.565Z,1.67
2024-02-14T21:42:28.825Z,2.03
2024-02-14T21:45:27.118Z,2.15
2024-02-14T21:48:25.892Z,2.05
2024-02-14T21:51:24.325Z,2.03
2024-02-14T21:54:22.606Z,2.15
2024-02-14T21:57:20.935Z,2.05
2024-02-14T22:00:19.354Z,2.25
2024-02-14T22:03:17.651Z,2.33
2024-02-14T22:06:16.484Z,2.10
2024-02-14T22:09:16.928Z,1.90
2024-02-14T22:12:24.609Z,2.35
2024-02-14T22:15:24.655Z,1.80
2024-02-14T22:18:23.023Z,2.00
2024-02-14T22:21:21.475Z,2.03
2024-02-14T22:24:19.862Z,1.90
2024-02-14T22:27:19.736Z,2.10
2024-02-14T22:30:18.219Z,2.20
2024-02-14T22:33:17.201Z,1.90
2024-02-14T22:36:15.567Z,2.30
2024-02-14T22:39:14.016Z,2.00
2024-02-14T22:42:12.515Z,2.20
2024-02-14T22:45:14.653Z,2.40
2024-02-14T22:48:13.072Z,2.08
2024-02-14T22:51:11.680Z,2.20
2024-02-14T22:54:10.330Z,2.17
2024-02-14T22:57:10.026Z,2.08
2024-02-14T23:00:09.799Z,2.38
2024-02-14T23:03:08.876Z,2.00
2024-02-14T23:06:07.365Z,2.25
2024-02-14T23:09:07.331Z,2.00
2024-02-14T23:12:05.739Z,1.98
2024-02-14T23:15:07.394Z,2.17
2024-02-14T23:18:07.013Z,2.40
2024-02-14T23:21:05.531Z,2.58
2024-02-14T23:24:04.199Z,2.10
2024-02-14T23:27:02.768Z,2.50
2024-02-14T23:30:01.077Z,2.20
2024-02-14T23:33:00.432Z,2.30
2024-02-14T23:35:58.873Z,2.00
2024-02-14T23:38:57.291Z,2.10
2024-02-14T23:41:57.069Z,2.15
2024-02-14T23:44:56.376Z,2.42
2024-02-14T23:47:55.918Z,2.17
2024-02-14T23:50:54.363Z,2.15
2024-02-14T23:53:52.571Z,2.20
2024-02-14T23:56:51.041Z,2.17
2024-02-14T23:59:51.177Z,2.50
